createdAt,value
2022-09-16T00:00:27.745Z,10.37
2022-09-16T00:02:55.778Z,10.41
2022-09-16T00:05:22.878Z,10.50
2022-09-16T00:07:49.647Z,10.58
2022-09-16T00:10:16.709Z,10.68
2022-09-16T00:12:43.970Z,10.72
2022-09-16T00:15:11.089Z,10.75
2022-09-16T00:17:38.484Z,10.76
2022-09-16T00:20:07.477Z,10.79
2022-09-16T00:22:35.205Z,10.81
2022-09-16T00:25:01.950Z,10.85
2022-09-16T00:27:28.920Z,10.84
2022-09-16T00:29:55.751Z,10.84
2022-09-16T00:32:24.123Z,10.84
2022-09-16T00:34:51.801Z,10.79
2022-09-16T00:37:18.937Z,10.71
2022-09-16T00:39:50.834Z,10.60
2022-09-16T00:42:19.445Z,10.54
2022-09-16T00:45:03.018Z,10.38
2022-09-16T00:47:32.836Z,10.24
2022-09-16T00:50:10.115Z,10.12
2022-09-16T00:52:38.338Z,10.07
2022-09-16T00:55:09.959Z,10.04
2022-09-16T00:57:38.125Z,9.99
2022-09-16T01:00:08.384Z,10.09
2022-09-16T01:02:35.229Z,10.20
2022-09-16T01:05:09.824Z,10.37
2022-09-16T01:07:42.123Z,10.44
2022-09-16T01:10:09.161Z,10.52
2022-09-16T01:12:37.109Z,10.60
2022-09-16T01:15:06.254Z,10.72
2022-09-16T01:17:54.480Z,10.72
2022-09-16T01:20:59.688Z,10.72
2022-09-16T01:23:35.227Z,10.66
2022-09-16T01:26:39.513Z,10.67
2022-09-16T01:29:18.267Z,10.68
2022-09-16T01:32:12.666Z,10.76
2022-09-16T01:35:02.842Z,10.80
2022-09-16T01:38:11.548Z,10.83
2022-09-16T01:40:54.320Z,10.86
2022-09-16T01:43:30.908Z,10.92
2022-09-16T01:46:17.432Z,10.93
2022-09-16T01:48:54.697Z,10.94
2022-09-16T01:51:30.907Z,10.93
2022-09-16T01:54:13.311Z,10.97
2022-09-16T01:56:57.848Z,10.95
2022-09-16T01:59:47.904Z,11.02
2022-09-16T02:02:23.762Z,10.94
2022-09-16T02:04:56.660Z,10.84
2022-09-16T02:07:29.487Z,10.74
2022-09-16T02:10:00.929Z,10.63
2022-09-16T02:12:33.087Z,10.50
2022-09-16T02:15:08.304Z,10.33
2022-09-16T02:17:40.962Z,10.24
2022-09-16T02:20:09.218Z,10.17
2022-09-16T02:22:48.851Z,10.04
2022-09-16T02:25:19.560Z,9.96
2022-09-16T02:27:49.357Z,9.86
2022-09-16T02:30:20.266Z,9.73
2022-09-16T02:33:07.870Z,9.72
2022-09-16T02:35:38.461Z,9.73
2022-09-16T02:38:13.115Z,9.76
2022-09-16T02:40:58.323Z,9.82
2022-09-16T02:43:26.889Z,9.90
2022-09-16T02:46:23.226Z,9.99
2022-09-16T02:49:03.219Z,10.10
2022-09-16T02:51:46.416Z,10.13
2022-09-16T02:54:31.257Z,10.16
2022-09-16T02:56:58.132Z,10.15
2022-09-16T02:59:25.376Z,10.14
2022-09-16T03:01:52.802Z,10.12
2022-09-16T03:04:20.422Z,10.10
2022-09-16T03:06:48.603Z,10.22
2022-09-16T03:09:18.187Z,10.29
2022-09-16T03:12:26.741Z,10.39
2022-09-16T03:15:30.791Z,10.57
2022-09-16T03:18:30.795Z,10.56
2022-09-16T03:21:00.341Z,10.48
2022-09-16T03:23:56.313Z,10.31
2022-09-16T03:26:36.798Z,10.26
2022-09-16T03:29:06.577Z,10.27
2022-09-16T03:31:45.589Z,10.24
2022-09-16T03:34:21.224Z,10.28
2022-09-16T03:36:54.353Z,10.24
2022-09-16T03:39:22.601Z,10.15
2022-09-16T03:41:51.151Z,10.10
2022-09-16T03:44:18.414Z,10.15
2022-09-16T03:46:45.169Z,10.32
2022-09-16T03:49:12.769Z,10.54
2022-09-16T03:51:40.007Z,10.63
2022-09-16T03:54:06.787Z,10.76
2022-09-16T03:56:33.582Z,10.91
2022-09-16T03:59:00.302Z,10.90
2022-09-16T04:01:27.103Z,11.00
2022-09-16T04:03:53.916Z,11.09
2022-09-16T04:06:20.628Z,11.25
2022-09-16T04:08:47.791Z,11.35
2022-09-16T04:11:14.531Z,11.42
2022-09-16T04:13:41.300Z,11.50
2022-09-16T04:16:08.126Z,11.54
2022-09-16T04:18:35.285Z,11.43
2022-09-16T04:21:04.752Z,11.27
2022-09-16T04:23:31.677Z,11.16
2022-09-16T04:26:00.615Z,10.94
2022-09-16T04:28:28.124Z,10.75
2022-09-16T04:30:54.910Z,10.61
2022-09-16T04:33:21.699Z,10.37
2022-09-16T04:35:48.495Z,10.46
2022-09-16T04:38:15.296Z,10.41
2022-09-16T04:40:42.101Z,10.48
2022-09-16T04:43:09.541Z,10.56
2022-09-16T04:45:36.231Z,10.74
2022-09-16T04:48:03.045Z,10.94
2022-09-16T04:50:29.775Z,11.10
2022-09-16T04:52:56.569Z,11.04
2022-09-16T04:55:24.032Z,11.10
2022-09-16T04:57:50.819Z,11.11
2022-09-16T05:00:17.618Z,11.09
2022-09-16T05:02:45.918Z,11.01
2022-09-16T05:05:13.235Z,10.99
2022-09-16T05:07:40.059Z,10.99
2022-09-16T05:10:07.150Z,10.99
2022-09-16T05:12:33.920Z,11.03
2022-09-16T05:15:00.649Z,11.04
2022-09-16T05:17:50.007Z,11.14
2022-09-16T05:20:17.928Z,11.24
2022-09-16T05:22:44.838Z,11.40
2022-09-16T05:25:11.917Z,11.49
2022-09-16T05:27:38.674Z,11.50
2022-09-16T05:30:05.958Z,11.34
2022-09-16T05:32:33.164Z,11.07
2022-09-16T05:34:59.925Z,10.94
2022-09-16T05:37:26.797Z,10.79
2022-09-16T05:39:54.040Z,10.69
2022-09-16T05:42:21.009Z,10.62
2022-09-16T05:44:47.772Z,10.66
2022-09-16T05:47:14.761Z,10.78
2022-09-16T05:49:41.696Z,10.87
2022-09-16T05:52:08.497Z,10.88
2022-09-16T05:54:35.201Z,10.79
2022-09-16T05:57:06.551Z,10.80
2022-09-16T05:59:33.790Z,10.83
2022-09-16T06:02:00.719Z,10.89
2022-09-16T06:04:27.562Z,10.91
2022-09-16T06:06:54.329Z,10.92
2022-09-16T06:09:23.735Z,10.83
2022-09-16T06:11:52.138Z,10.79
2022-09-16T06:14:19.971Z,10.76
2022-09-16T06:16:47.226Z,10.72
2022-09-16T06:19:17.220Z,10.63
2022-09-16T06:21:45.176Z,10.56
2022-09-16T06:24:13.551Z,10.54
2022-09-16T06:26:42.579Z,10.50
2022-09-16T06:29:10.189Z,10.48
2022-09-16T06:31:38.231Z,10.69
2022-09-16T06:34:06.000Z,11.19
2022-09-16T06:36:35.364Z,11.88
2022-09-16T06:39:02.673Z,12.62
2022-09-16T06:41:33.454Z,13.20
2022-09-16T06:44:00.810Z,13.66
2022-09-16T06:46:28.875Z,13.79
2022-09-16T06:49:01.417Z,13.75
2022-09-16T06:51:31.335Z,13.53
2022-09-16T06:54:04.119Z,13.38
2022-09-16T06:56:31.177Z,13.27
2022-09-16T06:58:58.462Z,13.23
2022-09-16T07:01:28.281Z,13.27
2022-09-16T07:03:58.292Z,13.67
2022-09-16T07:09:17.454Z,14.41
2022-09-16T07:11:44.479Z,14.26
2022-09-16T07:14:11.262Z,13.96
2022-09-16T07:16:38.146Z,13.56
2022-09-16T07:19:05.472Z,13.52
2022-09-16T07:21:32.498Z,13.41
2022-09-16T07:24:02.787Z,13.79
2022-09-16T07:26:32.131Z,14.01
2022-09-16T07:29:01.176Z,14.54
2022-09-16T07:31:31.187Z,14.94
2022-09-16T07:34:03.659Z,15.42
2022-09-16T07:36:37.163Z,16.18
2022-09-16T07:39:05.070Z,16.75
2022-09-16T07:41:40.657Z,17.46
2022-09-16T07:44:10.064Z,17.60
2022-09-16T07:46:37.131Z,17.65
2022-09-16T07:49:07.300Z,17.60
2022-09-16T07:51:35.437Z,18.02
2022-09-16T07:54:04.819Z,17.89
2022-09-16T07:56:34.723Z,18.30
2022-09-16T07:59:03.454Z,18.87
2022-09-16T08:01:33.659Z,18.76
2022-09-16T08:04:01.946Z,18.69
2022-09-16T08:06:31.209Z,19.14
2022-09-16T08:09:05.929Z,19.52
2022-09-16T08:11:42.179Z,19.88
2022-09-16T08:14:09.050Z,20.02
2022-09-16T08:16:35.853Z,19.58
2022-09-16T08:19:02.618Z,19.98
2022-09-16T08:21:29.946Z,20.69
2022-09-16T08:23:57.553Z,20.39
2022-09-16T08:26:25.507Z,20.92
2022-09-16T08:29:09.808Z,21.21
2022-09-16T08:31:38.323Z,21.00
2022-09-16T08:34:05.705Z,21.19
2022-09-16T08:36:35.305Z,21.16
2022-09-16T08:39:02.388Z,21.97
2022-09-16T08:41:53.918Z,20.76
2022-09-16T08:45:00.409Z,19.14
2022-09-16T08:47:42.698Z,18.03
2022-09-16T08:50:29.160Z,17.38
2022-09-16T08:52:59.505Z,16.92
2022-09-16T08:55:34.619Z,16.09
2022-09-16T08:58:07.294Z,15.65
2022-09-16T09:00:34.524Z,15.30
2022-09-16T09:03:39.565Z,15.94
2022-09-16T09:06:21.019Z,15.45
2022-09-16T09:09:24.488Z,16.77
2022-09-16T09:11:59.567Z,18.64
2022-09-16T09:14:35.647Z,19.70
2022-09-16T09:17:51.702Z,18.76
2022-09-16T09:20:33.659Z,19.15
2022-09-16T09:23:00.375Z,19.73
2022-09-16T09:25:55.362Z,20.68
2022-09-16T09:28:31.077Z,21.70
2022-09-16T09:31:25.747Z,20.23
2022-09-16T09:34:25.397Z,15.92
2022-09-16T09:37:22.976Z,13.43
2022-09-16T09:40:17.534Z,12.73
2022-09-16T09:43:07.358Z,12.38
2022-09-16T09:45:47.591Z,12.47
2022-09-16T09:48:19.946Z,12.63
2022-09-16T09:50:49.642Z,13.38
2022-09-16T09:53:41.763Z,14.70
2022-09-16T09:56:45.072Z,15.58
2022-09-16T09:59:39.418Z,17.53
2022-09-16T10:02:21.553Z,17.77
2022-09-16T10:04:49.374Z,17.61
2022-09-16T10:07:19.336Z,17.97
2022-09-16T10:09:50.789Z,18.13
2022-09-16T10:12:34.125Z,16.14
2022-09-16T10:15:01.851Z,14.52
2022-09-16T10:17:32.176Z,13.62
2022-09-16T10:20:10.369Z,13.37
2022-09-16T10:22:37.191Z,13.77
2022-09-16T10:25:21.296Z,15.85
2022-09-16T10:28:00.855Z,18.06
2022-09-16T10:30:32.908Z,19.75
2022-09-16T10:33:07.723Z,20.96
2022-09-16T10:35:37.215Z,20.05
2022-09-16T10:38:06.414Z,18.61
2022-09-16T10:40:34.050Z,18.29
2022-09-16T10:43:07.600Z,18.90
2022-09-16T10:45:37.164Z,19.49
2022-09-16T10:48:14.255Z,19.34
2022-09-16T10:50:53.273Z,19.07
2022-09-16T10:53:47.370Z,17.84
2022-09-16T10:56:19.043Z,17.61
2022-09-16T10:58:46.121Z,17.76
2022-09-16T11:01:13.862Z,18.56
2022-09-16T11:04:06.352Z,19.23
2022-09-16T11:06:45.148Z,19.58
2022-09-16T11:09:40.727Z,19.86
2022-09-16T11:12:38.173Z,20.20
2022-09-16T11:15:23.878Z,19.99
2022-09-16T11:18:19.895Z,20.07
2022-09-16T11:21:20.786Z,20.17
2022-09-16T11:24:36.621Z,20.56
2022-09-16T11:27:15.627Z,20.54
2022-09-16T11:29:48.301Z,18.88
2022-09-16T11:32:35.251Z,18.15
2022-09-16T11:35:08.049Z,18.59
2022-09-16T11:37:55.367Z,18.53
2022-09-16T11:41:01.785Z,18.05
2022-09-16T11:43:50.094Z,18.15
2022-09-16T11:46:20.462Z,18.21
2022-09-16T11:49:10.228Z,18.22
2022-09-16T11:52:08.537Z,18.21
2022-09-16T11:54:46.806Z,18.24
2022-09-16T11:57:21.922Z,18.16
2022-09-16T11:59:56.925Z,17.92
2022-09-16T12:02:29.868Z,17.78
2022-09-16T12:05:06.281Z,17.54
2022-09-16T12:07:45.062Z,17.33
2022-09-16T12:10:27.418Z,17.08
2022-09-16T12:13:18.777Z,17.20
2022-09-16T12:16:02.154Z,16.82
2022-09-16T12:18:34.595Z,16.77
2022-09-16T12:21:10.812Z,16.53
2022-09-16T12:23:45.183Z,16.74
2022-09-16T12:26:27.237Z,16.37
2022-09-16T12:29:09.265Z,16.15
2022-09-16T12:31:45.199Z,15.83
2022-09-16T12:34:16.877Z,15.96
2022-09-16T12:36:48.635Z,16.36
2022-09-16T12:39:15.797Z,16.91
2022-09-16T12:42:43.222Z,17.46
2022-09-16T12:45:31.302Z,18.38
2022-09-16T12:48:33.818Z,19.36
2022-09-16T12:51:18.935Z,19.84
2022-09-16T12:53:51.589Z,17.74
2022-09-16T12:56:27.755Z,16.49
2022-09-16T12:59:21.804Z,15.86
2022-09-16T13:01:57.775Z,16.75
2022-09-16T13:04:38.825Z,17.80
2022-09-16T13:07:06.590Z,17.63
2022-09-16T13:09:40.858Z,17.79
2022-09-16T13:15:27.556Z,16.21
2022-09-16T13:17:55.159Z,14.96
2022-09-16T13:20:34.094Z,15.12
2022-09-16T13:23:18.965Z,15.25
2022-09-16T13:25:50.713Z,15.75
2022-09-16T13:28:40.135Z,15.91
2022-09-16T13:31:12.969Z,16.11
2022-09-16T13:33:41.693Z,15.76
2022-09-16T13:36:32.214Z,15.52
2022-09-16T13:39:05.340Z,15.00
2022-09-16T13:41:32.220Z,13.80
2022-09-16T13:43:59.886Z,13.34
2022-09-16T13:46:30.137Z,13.03
2022-09-16T13:49:04.149Z,13.16
2022-09-16T13:51:40.173Z,13.90
2022-09-16T13:54:25.020Z,15.23
2022-09-16T13:57:12.527Z,15.01
2022-09-16T14:02:32.245Z,13.95
2022-09-16T14:05:20.380Z,14.39
2022-09-16T14:08:13.835Z,14.14
2022-09-16T14:11:01.992Z,13.77
2022-09-16T14:14:05.726Z,14.27
2022-09-16T14:16:35.938Z,14.08
2022-09-16T14:19:24.762Z,13.69
2022-09-16T14:22:10.654Z,13.93
2022-09-16T14:24:42.266Z,14.41
2022-09-16T14:27:30.519Z,14.49
2022-09-16T14:30:02.447Z,14.60
2022-09-16T14:32:32.975Z,14.96
2022-09-16T14:35:08.608Z,14.88
2022-09-16T14:37:38.104Z,14.67
2022-09-16T14:40:13.487Z,14.60
2022-09-16T14:42:50.368Z,14.54
2022-09-16T14:45:17.584Z,15.14
2022-09-16T14:47:53.279Z,15.81
2022-09-16T14:50:24.842Z,15.47
2022-09-16T14:53:00.327Z,15.08
2022-09-16T14:55:31.346Z,13.26
2022-09-16T14:57:59.199Z,12.56
2022-09-16T15:00:43.894Z,12.19
2022-09-16T15:03:20.045Z,12.01
2022-09-16T15:05:47.486Z,11.99
2022-09-16T15:08:19.731Z,12.10
2022-09-16T15:10:52.987Z,12.25
2022-09-16T15:13:28.092Z,12.37
2022-09-16T15:16:04.061Z,12.31
2022-09-16T15:18:36.368Z,12.19
2022-09-16T15:21:10.706Z,12.13
2022-09-16T15:23:40.135Z,12.07
2022-09-16T15:26:26.296Z,11.98
2022-09-16T15:29:04.519Z,11.99
2022-09-16T15:31:35.094Z,11.94
2022-09-16T15:34:05.999Z,11.89
2022-09-16T15:36:39.244Z,11.88
2022-09-16T15:39:21.433Z,11.87
2022-09-16T15:41:48.286Z,11.89
2022-09-16T15:44:28.091Z,12.04
2022-09-16T15:46:55.242Z,12.14
2022-09-16T15:49:26.231Z,12.08
2022-09-16T15:51:53.283Z,11.93
2022-09-16T15:54:36.529Z,12.07
2022-09-16T15:57:15.499Z,12.29
2022-09-16T15:59:55.021Z,12.47
2022-09-16T16:02:33.036Z,12.58
2022-09-16T16:05:18.421Z,12.36
2022-09-16T16:07:51.467Z,12.35
2022-09-16T16:10:26.006Z,12.38
2022-09-16T16:12:56.397Z,12.65
2022-09-16T16:15:29.302Z,12.71
2022-09-16T16:18:00.777Z,12.77
2022-09-16T16:20:28.400Z,12.86
2022-09-16T16:22:55.423Z,12.84
2022-09-16T16:25:22.265Z,12.65
2022-09-16T16:27:49.007Z,12.54
2022-09-16T16:30:15.851Z,12.48
2022-09-16T16:32:42.583Z,12.36
2022-09-16T16:35:09.465Z,12.40
2022-09-16T16:37:52.237Z,12.38
2022-09-16T16:40:19.207Z,12.21
2022-09-16T16:42:46.045Z,12.15
2022-09-16T16:45:14.133Z,12.14
2022-09-16T16:47:41.386Z,12.14
2022-09-16T16:50:08.753Z,12.10
2022-09-16T16:52:35.585Z,11.98
2022-09-16T16:55:02.456Z,11.90
2022-09-16T16:57:29.181Z,11.96
2022-09-16T16:59:56.473Z,11.92
2022-09-16T17:02:23.467Z,12.01
2022-09-16T17:04:50.596Z,12.11
2022-09-16T17:07:32.728Z,12.24
2022-09-16T17:09:59.619Z,12.42
2022-09-16T17:12:26.903Z,12.33
2022-09-16T17:14:53.954Z,12.25
2022-09-16T17:17:20.825Z,12.16
2022-09-16T17:19:47.629Z,12.07
2022-09-16T17:22:14.487Z,12.17
2022-09-16T17:24:41.272Z,12.27
2022-09-16T17:27:08.004Z,12.30
2022-09-16T17:29:34.848Z,12.37
2022-09-16T17:32:03.072Z,12.46
2022-09-16T17:34:30.965Z,12.43
2022-09-16T17:36:58.350Z,12.47
2022-09-16T17:39:25.850Z,12.47
2022-09-16T17:41:54.512Z,12.42
2022-09-16T17:44:21.432Z,12.38
2022-09-16T17:46:48.451Z,12.26
2022-09-16T17:49:21.683Z,12.24
2022-09-16T17:51:50.155Z,12.04
2022-09-16T17:54:17.485Z,11.95
2022-09-16T17:56:44.501Z,11.88
2022-09-16T17:59:13.447Z,11.80
2022-09-16T18:01:40.800Z,11.84
2022-09-16T18:04:08.220Z,11.81
2022-09-16T18:06:43.925Z,11.83
2022-09-16T18:09:11.737Z,11.82
2022-09-16T18:11:40.049Z,11.85
2022-09-16T18:14:10.139Z,11.91
2022-09-16T18:16:36.981Z,11.99
2022-09-16T18:19:04.109Z,12.03
2022-09-16T18:21:31.439Z,12.06
2022-09-16T18:24:00.562Z,12.01
2022-09-16T18:26:27.903Z,12.06
2022-09-16T18:29:12.606Z,12.02
2022-09-16T18:31:41.901Z,12.04
2022-09-16T18:34:09.001Z,12.10
2022-09-16T18:36:37.680Z,12.11
2022-09-16T18:39:06.190Z,12.15
2022-09-16T18:41:38.588Z,12.29
2022-09-16T18:44:19.573Z,12.24
2022-09-16T18:46:47.129Z,11.98
2022-09-16T18:49:16.324Z,11.72
2022-09-16T18:51:51.789Z,11.75
2022-09-16T18:54:30.153Z,12.03
2022-09-16T18:56:59.184Z,12.18
2022-09-16T18:59:29.268Z,11.92
2022-09-16T19:01:59.254Z,11.81
2022-09-16T19:04:32.521Z,11.72
2022-09-16T19:07:10.067Z,11.69
2022-09-16T19:09:41.114Z,11.76
2022-09-16T19:12:12.553Z,11.66
2022-09-16T19:14:40.073Z,11.69
2022-09-16T19:17:06.968Z,11.79
2022-09-16T19:19:34.790Z,11.91
2022-09-16T19:22:05.586Z,11.87
2022-09-16T19:24:32.715Z,11.92
2022-09-16T19:26:59.461Z,12.05
2022-09-16T19:29:26.316Z,12.00
2022-09-16T19:31:53.551Z,12.05
2022-09-16T19:34:21.259Z,12.09
2022-09-16T19:36:48.149Z,12.10
2022-09-16T19:39:15.086Z,12.06
2022-09-16T19:41:42.762Z,12.03
2022-09-16T19:44:15.714Z,12.08
2022-09-16T19:46:43.157Z,12.18
2022-09-16T19:49:19.953Z,12.28
2022-09-16T19:51:48.334Z,12.08
2022-09-16T19:54:15.960Z,11.95
2022-09-16T19:56:45.885Z,11.88
2022-09-16T19:59:15.239Z,11.89
2022-09-16T20:01:42.288Z,11.95
2022-09-16T20:04:09.510Z,12.00
2022-09-16T20:06:41.347Z,12.09
2022-09-16T20:09:11.644Z,12.13
2022-09-16T20:11:44.553Z,12.14
2022-09-16T20:14:14.762Z,12.21
2022-09-16T20:16:42.224Z,12.27
2022-09-16T20:19:12.127Z,12.35
2022-09-16T20:21:39.604Z,12.37
2022-09-16T20:24:08.061Z,12.42
2022-09-16T20:26:35.801Z,12.42
2022-09-16T20:29:03.772Z,12.41
2022-09-16T20:31:34.058Z,12.43
2022-09-16T20:34:01.698Z,12.41
2022-09-16T20:36:31.053Z,12.31
2022-09-16T20:39:01.449Z,12.32
2022-09-16T20:41:30.976Z,12.44
2022-09-16T20:43:59.421Z,12.37
2022-09-16T20:46:32.866Z,12.35
2022-09-16T20:49:02.074Z,12.50
2022-09-16T20:51:31.519Z,12.61
2022-09-16T20:54:08.153Z,12.64
2022-09-16T20:56:39.279Z,12.62
2022-09-16T20:59:11.775Z,12.56
2022-09-16T21:01:40.563Z,12.59
2022-09-16T21:04:13.606Z,12.64
2022-09-16T21:06:40.372Z,12.65
2022-09-16T21:09:10.204Z,12.57
2022-09-16T21:11:44.484Z,12.52
2022-09-16T21:14:15.134Z,12.42
2022-09-16T21:16:43.176Z,12.37
2022-09-16T21:19:11.246Z,12.41
2022-09-16T21:21:40.022Z,12.49
2022-09-16T21:24:07.685Z,12.50
2022-09-16T21:26:36.674Z,12.46
2022-09-16T21:29:11.218Z,12.49
2022-09-16T21:31:39.919Z,12.49
2022-09-16T21:34:10.750Z,12.62
2022-09-16T21:36:39.903Z,12.71
2022-09-16T21:39:07.956Z,12.77
2022-09-16T21:41:34.693Z,12.67
2022-09-16T21:44:02.050Z,12.48
2022-09-16T21:46:32.358Z,12.39
2022-09-16T21:49:02.249Z,12.35
2022-09-16T21:51:36.213Z,12.43
2022-09-16T21:54:05.434Z,12.52
2022-09-16T21:56:32.499Z,12.48
2022-09-16T21:58:59.447Z,12.43
2022-09-16T22:01:28.716Z,12.32
2022-09-16T22:04:00.792Z,12.32
2022-09-16T22:06:28.106Z,12.33
2022-09-16T22:08:57.497Z,12.37
2022-09-16T22:11:26.637Z,12.32
2022-09-16T22:13:55.215Z,12.32
2022-09-16T22:16:28.377Z,12.38
2022-09-16T22:18:57.126Z,12.46
2022-09-16T22:21:26.246Z,12.54
2022-09-16T22:23:53.223Z,12.59
2022-09-16T22:26:21.943Z,12.60
2022-09-16T22:28:49.496Z,12.62
2022-09-16T22:31:19.314Z,12.69
2022-09-16T22:33:47.601Z,12.76
2022-09-16T22:36:17.110Z,12.89
2022-09-16T22:38:52.885Z,12.81
2022-09-16T22:41:20.436Z,12.71
2022-09-16T22:43:49.467Z,12.62
2022-09-16T22:46:19.066Z,12.56
2022-09-16T22:48:46.702Z,12.46
2022-09-16T22:51:15.204Z,12.44
2022-09-16T22:53:43.541Z,12.44
2022-09-16T22:56:16.145Z,12.47
2022-09-16T22:58:44.278Z,12.47
2022-09-16T23:01:17.933Z,12.44
2022-09-16T23:03:45.943Z,12.33
2022-09-16T23:06:15.260Z,12.17
2022-09-16T23:08:45.689Z,12.11
2022-09-16T23:11:15.420Z,12.15
2022-09-16T23:13:43.142Z,12.20
2022-09-16T23:16:14.044Z,12.25
2022-09-16T23:18:41.676Z,12.28
2022-09-16T23:21:10.540Z,12.23
2022-09-16T23:23:43.598Z,12.37
2022-09-16T23:26:14.044Z,12.19
2022-09-16T23:28:41.263Z,11.99
2022-09-16T23:31:16.954Z,11.82
2022-09-16T23:33:44.724Z,11.70
2022-09-16T23:36:13.992Z,11.64
2022-09-16T23:38:42.243Z,11.59
2022-09-16T23:41:12.089Z,11.54
2022-09-16T23:43:39.561Z,11.61
2022-09-16T23:46:06.748Z,11.72
2022-09-16T23:48:35.119Z,11.68
2022-09-16T23:51:02.505Z,11.49
2022-09-16T23:53:29.326Z,11.28
2022-09-16T23:55:56.106Z,11.29
2022-09-16T23:58:23.256Z,11.30
